sensor_id;sensor_type;location;lat;lon;timestamp;P1;durP1;ratioP1;P2;durP2;ratioP2
2784;SDS011;57944;48.722;9.316;2022-09-09T00:00:49;3.93;;;2.57;;
2784;SDS011;57944;48.722;9.316;2022-09-09T00:03:33;9.20;;;4.17;;
2784;SDS011;57944;48.722;9.316;2022-09-09T00:06:14;12.20;;;3.17;;
2784;SDS011;57944;48.722;9.316;2022-09-09T00:08:58;6.57;;;3.50;;
2784;SDS011;57944;48.722;9.316;2022-09-09T00:11:36;4.37;;;3.10;;
2784;SDS011;57944;48.722;9.316;2022-09-09T00:14:14;8.87;;;3.10;;
2784;SDS011;57944;48.722;9.316;2022-09-09T00:16:56;9.87;;;3.27;;
2784;SDS011;57944;48.722;9.316;2022-09-09T00:19:37;5.67;;;2.70;;
2784;SDS011;57944;48.722;9.316;2022-09-09T00:22:17;8.30;;;3.30;;
2784;SDS011;57944;48.722;9.316;2022-09-09T00:24:51;10.00;;;3.33;;
2784;SDS011;57944;48.722;9.316;2022-09-09T00:27:25;4.40;;;2.57;;
2784;SDS011;57944;48.722;9.316;2022-09-09T00:30:13;11.20;;;3.70;;
2784;SDS011;57944;48.722;9.316;2022-09-09T00:32:49;6.20;;;2.90;;
2784;SDS011;57944;48.722;9.316;2022-09-09T00:35:28;8.23;;;3.23;;
2784;SDS011;57944;48.722;9.316;2022-09-09T00:38:03;4.70;;;2.90;;
2784;SDS011;57944;48.722;9.316;2022-09-09T00:40:45;9.63;;;3.73;;
2784;SDS011;57944;48.722;9.316;2022-09-09T00:43:26;5.37;;;3.37;;
2784;SDS011;57944;48.722;9.316;2022-09-09T00:46:05;5.40;;;3.43;;
2784;SDS011;57944;48.722;9.316;2022-09-09T00:49:04;11.10;;;4.17;;
2784;SDS011;57944;48.722;9.316;2022-09-09T00:51:54;6.77;;;4.10;;
2784;SDS011;57944;48.722;9.316;2022-09-09T00:54:46;12.60;;;3.73;;
2784;SDS011;57944;48.722;9.316;2022-09-09T00:57:25;7.30;;;3.27;;
2784;SDS011;57944;48.722;9.316;2022-09-09T01:02:52;8.80;;;3.30;;
2784;SDS011;57944;48.722;9.316;2022-09-09T01:05:39;7.33;;;3.70;;
2784;SDS011;57944;48.722;9.316;2022-09-09T01:08:28;9.30;;;4.13;;
2784;SDS011;57944;48.722;9.316;2022-09-09T01:11:16;6.43;;;3.63;;
2784;SDS011;57944;48.722;9.316;2022-09-09T01:13:56;5.30;;;3.13;;
2784;SDS011;57944;48.722;9.316;2022-09-09T01:16:40;4.60;;;2.97;;
2784;SDS011;57944;48.722;9.316;2022-09-09T01:19:16;6.63;;;3.27;;
2784;SDS011;57944;48.722;9.316;2022-09-09T01:22:01;5.40;;;2.90;;
2784;SDS011;57944;48.722;9.316;2022-09-09T01:25:01;4.70;;;2.60;;
2784;SDS011;57944;48.722;9.316;2022-09-09T01:28:09;6.10;;;3.43;;
2784;SDS011;57944;48.722;9.316;2022-09-09T01:30:46;7.77;;;3.40;;
2784;SDS011;57944;48.722;9.316;2022-09-09T01:33:19;10.37;;;3.77;;
2784;SDS011;57944;48.722;9.316;2022-09-09T01:35:50;6.60;;;3.80;;
2784;SDS011;57944;48.722;9.316;2022-09-09T01:38:31;5.73;;;3.10;;
2784;SDS011;57944;48.722;9.316;2022-09-09T01:41:03;6.57;;;3.53;;
2784;SDS011;57944;48.722;9.316;2022-09-09T01:43:54;8.93;;;3.13;;
2784;SDS011;57944;48.722;9.316;2022-09-09T01:46:28;8.00;;;3.07;;
2784;SDS011;57944;48.722;9.316;2022-09-09T01:48:59;5.80;;;3.20;;
2784;SDS011;57944;48.722;9.316;2022-09-09T01:51:34;8.40;;;3.67;;
2784;SDS011;57944;48.722;9.316;2022-09-09T01:54:10;7.73;;;3.03;;
2784;SDS011;57944;48.722;9.316;2022-09-09T01:56:43;9.63;;;4.13;;
2784;SDS011;57944;48.722;9.316;2022-09-09T01:59:37;6.53;;;3.43;;
2784;SDS011;57944;48.722;9.316;2022-09-09T02:02:23;7.40;;;3.30;;
2784;SDS011;57944;48.722;9.316;2022-09-09T02:05:12;7.53;;;3.90;;
2784;SDS011;57944;48.722;9.316;2022-09-09T02:07:58;4.30;;;3.40;;
2784;SDS011;57944;48.722;9.316;2022-09-09T02:10:50;9.23;;;3.60;;
2784;SDS011;57944;48.722;9.316;2022-09-09T02:13:38;9.03;;;3.63;;
2784;SDS011;57944;48.722;9.316;2022-09-09T02:16:17;7.83;;;3.47;;
2784;SDS011;57944;48.722;9.316;2022-09-09T02:18:57;7.07;;;3.90;;
2784;SDS011;57944;48.722;9.316;2022-09-09T02:21:49;10.50;;;4.70;;
2784;SDS011;57944;48.722;9.316;2022-09-09T02:24:23;8.70;;;6.23;;
2784;SDS011;57944;48.722;9.316;2022-09-09T02:27:08;10.70;;;4.43;;
2784;SDS011;57944;48.722;9.316;2022-09-09T02:29:41;9.70;;;4.23;;
2784;SDS011;57944;48.722;9.316;2022-09-09T02:32:19;7.43;;;3.40;;
2784;SDS011;57944;48.722;9.316;2022-09-09T02:34:54;12.33;;;5.13;;
2784;SDS011;57944;48.722;9.316;2022-09-09T02:37:30;8.03;;;4.43;;
2784;SDS011;57944;48.722;9.316;2022-09-09T02:40:06;7.63;;;4.27;;
2784;SDS011;57944;48.722;9.316;2022-09-09T02:42:46;9.00;;;3.73;;
2784;SDS011;57944;48.722;9.316;2022-09-09T02:45:19;12.30;;;4.33;;
2784;SDS011;57944;48.722;9.316;2022-09-09T02:47:59;7.23;;;4.07;;
2784;SDS011;57944;48.722;9.316;2022-09-09T02:50:45;8.87;;;3.90;;
2784;SDS011;57944;48.722;9.316;2022-09-09T02:53:29;9.60;;;4.83;;
2784;SDS011;57944;48.722;9.316;2022-09-09T02:56:13;6.73;;;4.40;;
2784;SDS011;57944;48.722;9.316;2022-09-09T02:58:48;7.37;;;4.23;;
2784;SDS011;57944;48.722;9.316;2022-09-09T03:01:20;6.00;;;4.13;;
2784;SDS011;57944;48.722;9.316;2022-09-09T03:03:53;6.20;;;4.13;;
2784;SDS011;57944;48.722;9.316;2022-09-09T03:06:24;5.50;;;4.37;;
2784;SDS011;57944;48.722;9.316;2022-09-09T03:09:03;7.80;;;3.90;;
2784;SDS011;57944;48.722;9.316;2022-09-09T03:11:34;7.57;;;4.10;;
2784;SDS011;57944;48.722;9.316;2022-09-09T03:14:05;10.80;;;4.30;;
2784;SDS011;57944;48.722;9.316;2022-09-09T03:16:38;7.03;;;4.17;;
2784;SDS011;57944;48.722;9.316;2022-09-09T03:19:12;12.33;;;4.97;;
2784;SDS011;57944;48.722;9.316;2022-09-09T03:21:42;6.70;;;4.67;;
2784;SDS011;57944;48.722;9.316;2022-09-09T03:24:12;6.10;;;4.80;;
2784;SDS011;57944;48.722;9.316;2022-09-09T03:26:43;9.07;;;4.93;;
2784;SDS011;57944;48.722;9.316;2022-09-09T03:29:16;9.73;;;6.13;;
2784;SDS011;57944;48.722;9.316;2022-09-09T03:31:46;9.93;;;5.10;;
2784;SDS011;57944;48.722;9.316;2022-09-09T03:34:19;7.17;;;4.07;;
2784;SDS011;57944;48.722;9.316;2022-09-09T03:36:49;10.50;;;4.70;;
2784;SDS011;57944;48.722;9.316;2022-09-09T03:39:19;9.40;;;5.00;;
2784;SDS011;57944;48.722;9.316;2022-09-09T03:41:49;8.43;;;5.10;;
2784;SDS011;57944;48.722;9.316;2022-09-09T03:44:20;10.10;;;4.80;;
2784;SDS011;57944;48.722;9.316;2022-09-09T03:46:50;13.80;;;5.10;;
2784;SDS011;57944;48.722;9.316;2022-09-09T03:49:23;12.47;;;5.70;;
2784;SDS011;57944;48.722;9.316;2022-09-09T03:51:55;9.30;;;4.60;;
2784;SDS011;57944;48.722;9.316;2022-09-09T03:54:28;8.57;;;5.07;;
2784;SDS011;57944;48.722;9.316;2022-09-09T03:56:58;6.43;;;4.40;;
2784;SDS011;57944;48.722;9.316;2022-09-09T03:59:28;8.73;;;4.97;;
2784;SDS011;57944;48.722;9.316;2022-09-09T04:01:58;4.90;;;4.23;;
2784;SDS011;57944;48.722;9.316;2022-09-09T04:04:31;9.33;;;4.07;;
2784;SDS011;57944;48.722;9.316;2022-09-09T04:07:01;5.93;;;4.20;;
2784;SDS011;57944;48.722;9.316;2022-09-09T04:09:33;8.13;;;3.50;;
2784;SDS011;57944;48.722;9.316;2022-09-09T04:12:03;6.93;;;4.27;;
2784;SDS011;57944;48.722;9.316;2022-09-09T04:14:34;9.20;;;4.30;;
2784;SDS011;57944;48.722;9.316;2022-09-09T04:17:05;5.17;;;3.87;;
2784;SDS011;57944;48.722;9.316;2022-09-09T04:19:38;7.20;;;3.73;;
2784;SDS011;57944;48.722;9.316;2022-09-09T04:22:09;6.80;;;4.80;;
2784;SDS011;57944;48.722;9.316;2022-09-09T04:24:39;5.50;;;4.07;;
2784;SDS011;57944;48.722;9.316;2022-09-09T04:27:14;8.30;;;3.90;;
2784;SDS011;57944;48.722;9.316;2022-09-09T04:29:44;15.17;;;4.93;;
2784;SDS011;57944;48.722;9.316;2022-09-09T04:32:15;8.70;;;4.60;;
2784;SDS011;57944;48.722;9.316;2022-09-09T04:34:47;9.43;;;3.77;;
2784;SDS011;57944;48.722;9.316;2022-09-09T04:37:18;8.47;;;4.60;;
2784;SDS011;57944;48.722;9.316;2022-09-09T04:39:48;6.67;;;3.77;;
2784;SDS011;57944;48.722;9.316;2022-09-09T04:42:18;12.20;;;7.47;;
2784;SDS011;57944;48.722;9.316;2022-09-09T04:44:48;10.10;;;4.23;;
2784;SDS011;57944;48.722;9.316;2022-09-09T04:47:18;5.60;;;4.10;;
2784;SDS011;57944;48.722;9.316;2022-09-09T04:49:51;10.23;;;4.50;;
2784;SDS011;57944;48.722;9.316;2022-09-09T04:52:21;11.23;;;4.47;;
2784;SDS011;57944;48.722;9.316;2022-09-09T04:54:51;8.87;;;4.70;;
2784;SDS011;57944;48.722;9.316;2022-09-09T04:57:21;8.40;;;4.83;;
2784;SDS011;57944;48.722;9.316;2022-09-09T04:59:51;9.17;;;4.10;;
2784;SDS011;57944;48.722;9.316;2022-09-09T05:02:21;6.70;;;4.70;;
2784;SDS011;57944;48.722;9.316;2022-09-09T05:04:59;18.77;;;4.80;;
2784;SDS011;57944;48.722;9.316;2022-09-09T05:07:29;7.17;;;4.30;;
2784;SDS011;57944;48.722;9.316;2022-09-09T05:09:59;7.80;;;4.10;;
2784;SDS011;57944;48.722;9.316;2022-09-09T05:12:31;7.53;;;3.60;;
2784;SDS011;57944;48.722;9.316;2022-09-09T05:15:01;9.23;;;4.50;;
2784;SDS011;57944;48.722;9.316;2022-09-09T05:17:33;10.10;;;4.67;;
2784;SDS011;57944;48.722;9.316;2022-09-09T05:20:06;8.60;;;4.00;;
2784;SDS011;57944;48.722;9.316;2022-09-09T05:22:42;5.47;;;3.80;;
2784;SDS011;57944;48.722;9.316;2022-09-09T05:25:13;6.23;;;4.60;;
2784;SDS011;57944;48.722;9.316;2022-09-09T05:27:43;9.60;;;4.03;;
2784;SDS011;57944;48.722;9.316;2022-09-09T05:30:13;6.50;;;3.60;;
2784;SDS011;57944;48.722;9.316;2022-09-09T05:32:45;7.80;;;3.30;;
2784;SDS011;57944;48.722;9.316;2022-09-09T05:35:19;8.27;;;5.87;;
2784;SDS011;57944;48.722;9.316;2022-09-09T05:37:49;10.40;;;3.83;;
2784;SDS011;57944;48.722;9.316;2022-09-09T05:40:19;7.27;;;3.53;;
2784;SDS011;57944;48.722;9.316;2022-09-09T05:42:50;8.13;;;4.23;;
2784;SDS011;57944;48.722;9.316;2022-09-09T05:45:20;7.27;;;3.70;;
2784;SDS011;57944;48.722;9.316;2022-09-09T05:47:51;7.63;;;3.43;;
2784;SDS011;57944;48.722;9.316;2022-09-09T05:50:24;6.03;;;3.40;;
2784;SDS011;57944;48.722;9.316;2022-09-09T05:52:57;7.93;;;3.40;;
2784;SDS011;57944;48.722;9.316;2022-09-09T05:55:28;6.87;;;2.83;;
2784;SDS011;57944;48.722;9.316;2022-09-09T05:57:58;4.80;;;2.60;;
2784;SDS011;57944;48.722;9.316;2022-09-09T06:00:28;5.50;;;2.63;;
2784;SDS011;57944;48.722;9.316;2022-09-09T06:02:59;6.47;;;2.77;;
2784;SDS011;57944;48.722;9.316;2022-09-09T06:05:32;7.17;;;3.50;;
2784;SDS011;57944;48.722;9.316;2022-09-09T06:08:02;6.20;;;3.03;;
2784;SDS011;57944;48.722;9.316;2022-09-09T06:10:33;7.77;;;3.70;;
2784;SDS011;57944;48.722;9.316;2022-09-09T06:13:04;8.53;;;2.77;;
2784;SDS011;57944;48.722;9.316;2022-09-09T06:15:34;7.50;;;2.80;;
2784;SDS011;57944;48.722;9.316;2022-09-09T06:18:04;5.23;;;2.90;;
2784;SDS011;57944;48.722;9.316;2022-09-09T06:20:36;6.33;;;3.10;;
2784;SDS011;57944;48.722;9.316;2022-09-09T06:23:06;6.93;;;3.20;;
2784;SDS011;57944;48.722;9.316;2022-09-09T06:25:36;5.40;;;2.70;;
2784;SDS011;57944;48.722;9.316;2022-09-09T06:28:07;7.80;;;3.00;;
2784;SDS011;57944;48.722;9.316;2022-09-09T06:30:37;9.13;;;2.90;;
2784;SDS011;57944;48.722;9.316;2022-09-09T06:33:07;7.93;;;2.50;;
2784;SDS011;57944;48.722;9.316;2022-09-09T06:35:41;5.23;;;2.40;;
2784;SDS011;57944;48.722;9.316;2022-09-09T06:38:11;4.70;;;2.43;;
2784;SDS011;57944;48.722;9.316;2022-09-09T06:40:41;6.53;;;3.30;;
2784;SDS011;57944;48.722;9.316;2022-09-09T06:43:12;10.13;;;2.60;;
2784;SDS011;57944;48.722;9.316;2022-09-09T06:45:52;6.63;;;2.63;;
2784;SDS011;57944;48.722;9.316;2022-09-09T06:48:24;6.60;;;2.13;;
2784;SDS011;57944;48.722;9.316;2022-09-09T06:51:05;7.70;;;3.07;;
2784;SDS011;57944;48.722;9.316;2022-09-09T06:53:38;7.00;;;2.37;;
2784;SDS011;57944;48.722;9.316;2022-09-09T06:56:17;5.23;;;3.00;;
2784;SDS011;57944;48.722;9.316;2022-09-09T06:58:52;5.97;;;2.70;;
2784;SDS011;57944;48.722;9.316;2022-09-09T07:01:28;5.47;;;2.70;;
2784;SDS011;57944;48.722;9.316;2022-09-09T07:04:04;5.33;;;2.20;;
2784;SDS011;57944;48.722;9.316;2022-09-09T07:06:40;7.33;;;2.80;;
2784;SDS011;57944;48.722;9.316;2022-09-09T07:09:20;5.57;;;2.97;;
2784;SDS011;57944;48.722;9.316;2022-09-09T07:11:52;4.67;;;2.80;;
2784;SDS011;57944;48.722;9.316;2022-09-09T07:14:25;6.20;;;3.20;;
2784;SDS011;57944;48.722;9.316;2022-09-09T07:16:59;12.87;;;3.00;;
2784;SDS011;57944;48.722;9.316;2022-09-09T07:19:34;7.87;;;2.60;;
2784;SDS011;57944;48.722;9.316;2022-09-09T07:22:07;7.40;;;2.87;;
2784;SDS011;57944;48.722;9.316;2022-09-09T07:24:38;5.67;;;2.60;;
2784;SDS011;57944;48.722;9.316;2022-09-09T07:27:08;7.43;;;3.63;;
2784;SDS011;57944;48.722;9.316;2022-09-09T07:29:39;3.77;;;2.20;;
2784;SDS011;57944;48.722;9.316;2022-09-09T07:32:09;9.77;;;3.27;;
2784;SDS011;57944;48.722;9.316;2022-09-09T07:34:39;8.60;;;2.83;;
2784;SDS011;57944;48.722;9.316;2022-09-09T07:37:12;8.40;;;3.40;;
2784;SDS011;57944;48.722;9.316;2022-09-09T07:39:44;13.40;;;3.17;;
2784;SDS011;57944;48.722;9.316;2022-09-09T07:42:16;7.23;;;2.73;;
2784;SDS011;57944;48.722;9.316;2022-09-09T07:44:46;6.30;;;2.70;;
2784;SDS011;57944;48.722;9.316;2022-09-09T07:47:21;6.27;;;2.17;;
2784;SDS011;57944;48.722;9.316;2022-09-09T07:49:51;7.77;;;2.80;;
2784;SDS011;57944;48.722;9.316;2022-09-09T07:52:30;6.47;;;3.30;;
2784;SDS011;57944;48.722;9.316;2022-09-09T07:55:02;6.20;;;3.60;;
2784;SDS011;57944;48.722;9.316;2022-09-09T07:57:34;6.47;;;3.17;;
2784;SDS011;57944;48.722;9.316;2022-09-09T08:00:05;11.27;;;2.80;;
2784;SDS011;57944;48.722;9.316;2022-09-09T08:02:43;7.10;;;3.53;;
2784;SDS011;57944;48.722;9.316;2022-09-09T08:05:13;6.70;;;2.70;;
2784;SDS011;57944;48.722;9.316;2022-09-09T08:07:47;10.40;;;3.03;;
2784;SDS011;57944;48.722;9.316;2022-09-09T08:10:17;8.23;;;3.70;;
2784;SDS011;57944;48.722;9.316;2022-09-09T08:12:49;6.90;;;2.70;;
2784;SDS011;57944;48.722;9.316;2022-09-09T08:15:39;4.40;;;2.60;;
2784;SDS011;57944;48.722;9.316;2022-09-09T08:18:10;7.97;;;3.33;;
2784;SDS011;57944;48.722;9.316;2022-09-09T08:20:40;5.87;;;2.93;;
2784;SDS011;57944;48.722;9.316;2022-09-09T08:23:13;4.83;;;2.80;;
2784;SDS011;57944;48.722;9.316;2022-09-09T08:25:43;6.93;;;2.40;;
2784;SDS011;57944;48.722;9.316;2022-09-09T08:28:15;5.57;;;2.20;;
2784;SDS011;57944;48.722;9.316;2022-09-09T08:30:45;3.57;;;1.90;;
2784;SDS011;57944;48.722;9.316;2022-09-09T08:33:15;6.17;;;1.87;;
2784;SDS011;57944;48.722;9.316;2022-09-09T08:35:49;5.33;;;2.33;;
2784;SDS011;57944;48.722;9.316;2022-09-09T08:38:22;5.23;;;2.47;;
2784;SDS011;57944;48.722;9.316;2022-09-09T08:40:53;4.20;;;1.87;;
2784;SDS011;57944;48.722;9.316;2022-09-09T08:43:46;3.60;;;1.60;;
2784;SDS011;57944;48.722;9.316;2022-09-09T08:46:21;3.37;;;1.80;;
2784;SDS011;57944;48.722;9.316;2022-09-09T08:49:05;4.30;;;1.70;;
2784;SDS011;57944;48.722;9.316;2022-09-09T08:51:54;7.17;;;2.53;;
2784;SDS011;57944;48.722;9.316;2022-09-09T08:54:30;5.57;;;1.90;;
2784;SDS011;57944;48.722;9.316;2022-09-09T08:57:19;5.83;;;1.73;;
2784;SDS011;57944;48.722;9.316;2022-09-09T08:59:55;3.90;;;1.90;;
2784;SDS011;57944;48.722;9.316;2022-09-09T09:02:30;6.27;;;2.20;;
2784;SDS011;57944;48.722;9.316;2022-09-09T09:05:18;4.07;;;1.97;;
2784;SDS011;57944;48.722;9.316;2022-09-09T09:08:00;9.80;;;1.80;;
2784;SDS011;57944;48.722;9.316;2022-09-09T09:10:46;4.83;;;1.70;;
2784;SDS011;57944;48.722;9.316;2022-09-09T09:13:23;3.23;;;1.60;;
2784;SDS011;57944;48.722;9.316;2022-09-09T09:16:13;5.27;;;2.17;;
2784;SDS011;57944;48.722;9.316;2022-09-09T09:18:54;7.90;;;1.67;;
2784;SDS011;57944;48.722;9.316;2022-09-09T09:21:28;4.30;;;1.60;;
2784;SDS011;57944;48.722;9.316;2022-09-09T09:24:13;6.40;;;1.60;;
2784;SDS011;57944;48.722;9.316;2022-09-09T09:26:52;5.60;;;2.00;;
2784;SDS011;57944;48.722;9.316;2022-09-09T09:29:24;6.27;;;1.70;;
2784;SDS011;57944;48.722;9.316;2022-09-09T09:31:56;4.80;;;1.60;;
2784;SDS011;57944;48.722;9.316;2022-09-09T09:34:32;6.10;;;2.00;;
2784;SDS011;57944;48.722;9.316;2022-09-09T09:37:02;4.40;;;2.07;;
2784;SDS011;57944;48.722;9.316;2022-09-09T09:39:47;7.27;;;3.20;;
2784;SDS011;57944;48.722;9.316;2022-09-09T09:42:35;5.40;;;1.50;;
2784;SDS011;57944;48.722;9.316;2022-09-09T09:45:14;3.20;;;1.60;;
2784;SDS011;57944;48.722;9.316;2022-09-09T09:47:57;4.20;;;2.23;;
2784;SDS011;57944;48.722;9.316;2022-09-09T09:50:34;6.27;;;2.00;;
2784;SDS011;57944;48.722;9.316;2022-09-09T09:53:18;4.20;;;2.00;;
2784;SDS011;57944;48.722;9.316;2022-09-09T09:55:55;3.73;;;1.80;;
2784;SDS011;57944;48.722;9.316;2022-09-09T09:58:32;4.90;;;1.93;;
2784;SDS011;57944;48.722;9.316;2022-09-09T10:01:18;5.23;;;1.33;;
2784;SDS011;57944;48.722;9.316;2022-09-09T10:03:51;5.20;;;1.50;;
2784;SDS011;57944;48.722;9.316;2022-09-09T10:06:31;3.33;;;1.40;;
2784;SDS011;57944;48.722;9.316;2022-09-09T10:09:17;3.83;;;1.50;;
2784;SDS011;57944;48.722;9.316;2022-09-09T10:11:56;4.37;;;1.43;;
2784;SDS011;57944;48.722;9.316;2022-09-09T10:14:41;2.90;;;1.17;;
2784;SDS011;57944;48.722;9.316;2022-09-09T10:17:22;2.80;;;1.17;;
2784;SDS011;57944;48.722;9.316;2022-09-09T10:20:17;2.93;;;1.10;;
2784;SDS011;57944;48.722;9.316;2022-09-09T10:23:04;4.97;;;1.67;;
2784;SDS011;57944;48.722;9.316;2022-09-09T10:25:58;4.83;;;1.50;;
2784;SDS011;57944;48.722;9.316;2022-09-09T10:28:50;5.57;;;1.33;;
2784;SDS011;57944;48.722;9.316;2022-09-09T10:31:52;4.20;;;1.67;;
2784;SDS011;57944;48.722;9.316;2022-09-09T10:34:39;12.30;;;2.60;;
2784;SDS011;57944;48.722;9.316;2022-09-09T10:37:29;2.90;;;1.17;;
2784;SDS011;57944;48.722;9.316;2022-09-09T10:40:19;3.80;;;1.57;;
2784;SDS011;57944;48.722;9.316;2022-09-09T10:43:02;5.13;;;1.50;;
2784;SDS011;57944;48.722;9.316;2022-09-09T10:45:49;4.53;;;1.80;;
2784;SDS011;57944;48.722;9.316;2022-09-09T10:48:41;5.10;;;1.97;;
2784;SDS011;57944;48.722;9.316;2022-09-09T10:51:33;3.43;;;1.57;;
2784;SDS011;57944;48.722;9.316;2022-09-09T10:54:20;5.63;;;1.73;;
2784;SDS011;57944;48.722;9.316;2022-09-09T10:57:12;5.03;;;1.53;;
2784;SDS011;57944;48.722;9.316;2022-09-09T10:59:58;5.67;;;2.00;;
2784;SDS011;57944;48.722;9.316;2022-09-09T11:02:34;4.83;;;2.10;;
2784;SDS011;57944;48.722;9.316;2022-09-09T11:05:14;5.10;;;1.60;;
2784;SDS011;57944;48.722;9.316;2022-09-09T11:07:51;6.47;;;2.10;;
2784;SDS011;57944;48.722;9.316;2022-09-09T11:10:33;5.47;;;1.87;;
2784;SDS011;57944;48.722;9.316;2022-09-09T11:13:14;4.07;;;1.70;;
2784;SDS011;57944;48.722;9.316;2022-09-09T11:15:53;5.77;;;1.70;;
2784;SDS011;57944;48.722;9.316;2022-09-09T11:18:30;3.53;;;1.50;;
2784;SDS011;57944;48.722;9.316;2022-09-09T11:21:12;4.40;;;1.70;;
2784;SDS011;57944;48.722;9.316;2022-09-09T11:23:56;3.57;;;1.23;;
2784;SDS011;57944;48.722;9.316;2022-09-09T11:26:37;4.20;;;1.40;;
2784;SDS011;57944;48.722;9.316;2022-09-09T11:32:41;6.30;;;2.57;;
2784;SDS011;57944;48.722;9.316;2022-09-09T11:35:41;8.23;;;1.77;;
2784;SDS011;57944;48.722;9.316;2022-09-09T11:38:39;4.67;;;2.83;;
2784;SDS011;57944;48.722;9.316;2022-09-09T11:41:17;6.93;;;2.33;;
2784;SDS011;57944;48.722;9.316;2022-09-09T11:43:51;6.90;;;2.67;;
2784;SDS011;57944;48.722;9.316;2022-09-09T11:46:22;4.57;;;3.17;;
2784;SDS011;57944;48.722;9.316;2022-09-09T11:49:05;11.43;;;2.50;;
2784;SDS011;57944;48.722;9.316;2022-09-09T11:51:57;9.10;;;4.07;;
2784;SDS011;57944;48.722;9.316;2022-09-09T11:54:31;4.90;;;2.40;;
2784;SDS011;57944;48.722;9.316;2022-09-09T11:57:21;4.80;;;2.17;;
2784;SDS011;57944;48.722;9.316;2022-09-09T11:59:59;5.50;;;1.80;;
2784;SDS011;57944;48.722;9.316;2022-09-09T12:02:37;2.97;;;1.50;;
2784;SDS011;57944;48.722;9.316;2022-09-09T12:05:18;3.50;;;1.27;;
2784;SDS011;57944;48.722;9.316;2022-09-09T12:07:51;6.27;;;1.60;;
2784;SDS011;57944;48.722;9.316;2022-09-09T12:10:28;3.07;;;1.10;;
2784;SDS011;57944;48.722;9.316;2022-09-09T12:13:09;4.93;;;1.23;;
2784;SDS011;57944;48.722;9.316;2022-09-09T12:15:47;2.70;;;1.00;;
2784;SDS011;57944;48.722;9.316;2022-09-09T12:18:21;2.90;;;1.10;;
2784;SDS011;57944;48.722;9.316;2022-09-09T12:20:57;3.97;;;1.00;;
2784;SDS011;57944;48.722;9.316;2022-09-09T12:23:38;3.60;;;0.93;;
2784;SDS011;57944;48.722;9.316;2022-09-09T12:26:23;2.30;;;0.80;;
2784;SDS011;57944;48.722;9.316;2022-09-09T12:29:05;2.67;;;1.30;;
2784;SDS011;57944;48.722;9.316;2022-09-09T12:31:55;2.60;;;1.10;;
2784;SDS011;57944;48.722;9.316;2022-09-09T12:34:36;5.30;;;0.80;;
2784;SDS011;57944;48.722;9.316;2022-09-09T12:37:14;4.10;;;1.30;;
2784;SDS011;57944;48.722;9.316;2022-09-09T12:39:53;2.50;;;0.90;;
2784;SDS011;57944;48.722;9.316;2022-09-09T12:42:29;3.00;;;0.90;;
2784;SDS011;57944;48.722;9.316;2022-09-09T12:45:15;2.50;;;1.10;;
2784;SDS011;57944;48.722;9.316;2022-09-09T12:47:49;3.43;;;1.40;;
2784;SDS011;57944;48.722;9.316;2022-09-09T12:50:24;3.37;;;1.40;;
2784;SDS011;57944;48.722;9.316;2022-09-09T12:53:01;4.20;;;1.10;;
2784;SDS011;57944;48.722;9.316;2022-09-09T12:55:38;3.33;;;1.40;;
2784;SDS011;57944;48.722;9.316;2022-09-09T12:58:20;5.97;;;1.03;;
2784;SDS011;57944;48.722;9.316;2022-09-09T13:00:51;3.33;;;1.17;;
2784;SDS011;57944;48.722;9.316;2022-09-09T13:03:24;3.70;;;1.10;;
2784;SDS011;57944;48.722;9.316;2022-09-09T13:05:57;3.40;;;1.20;;
2784;SDS011;57944;48.722;9.316;2022-09-09T13:08:40;4.63;;;1.13;;
2784;SDS011;57944;48.722;9.316;2022-09-09T13:11:12;4.07;;;1.60;;
2784;SDS011;57944;48.722;9.316;2022-09-09T13:13:52;8.80;;;1.60;;
2784;SDS011;57944;48.722;9.316;2022-09-09T13:16:27;3.27;;;1.10;;
2784;SDS011;57944;48.722;9.316;2022-09-09T13:19:06;4.27;;;1.43;;
2784;SDS011;57944;48.722;9.316;2022-09-09T13:21:43;4.67;;;1.30;;
2784;SDS011;57944;48.722;9.316;2022-09-09T13:24:25;3.20;;;1.47;;
2784;SDS011;57944;48.722;9.316;2022-09-09T13:27:01;2.93;;;1.47;;
2784;SDS011;57944;48.722;9.316;2022-09-09T13:29:54;3.83;;;1.70;;
2784;SDS011;57944;48.722;9.316;2022-09-09T13:32:25;6.80;;;1.43;;
2784;SDS011;57944;48.722;9.316;2022-09-09T13:34:57;5.17;;;1.87;;
2784;SDS011;57944;48.722;9.316;2022-09-09T13:37:30;4.37;;;1.33;;
2784;SDS011;57944;48.722;9.316;2022-09-09T13:40:05;3.83;;;1.47;;
2784;SDS011;57944;48.722;9.316;2022-09-09T13:42:50;4.73;;;1.40;;
2784;SDS011;57944;48.722;9.316;2022-09-09T13:45:27;3.23;;;1.33;;
2784;SDS011;57944;48.722;9.316;2022-09-09T13:48:08;2.60;;;1.00;;
2784;SDS011;57944;48.722;9.316;2022-09-09T13:50:39;7.30;;;1.20;;
2784;SDS011;57944;48.722;9.316;2022-09-09T13:53:10;3.80;;;1.10;;
2784;SDS011;57944;48.722;9.316;2022-09-09T13:55:40;8.30;;;1.53;;
2784;SDS011;57944;48.722;9.316;2022-09-09T13:58:16;3.77;;;1.53;;
2784;SDS011;57944;48.722;9.316;2022-09-09T14:00:50;4.30;;;1.40;;
2784;SDS011;57944;48.722;9.316;2022-09-09T14:03:21;7.03;;;1.30;;
2784;SDS011;57944;48.722;9.316;2022-09-09T14:05:51;4.37;;;1.13;;
2784;SDS011;57944;48.722;9.316;2022-09-09T14:08:23;4.33;;;1.20;;
2784;SDS011;57944;48.722;9.316;2022-09-09T14:11:03;4.73;;;1.30;;
2784;SDS011;57944;48.722;9.316;2022-09-09T14:13:33;3.70;;;1.37;;
2784;SDS011;57944;48.722;9.316;2022-09-09T14:16:06;3.67;;;1.40;;
2784;SDS011;57944;48.722;9.316;2022-09-09T14:18:36;4.53;;;1.10;;
2784;SDS011;57944;48.722;9.316;2022-09-09T14:21:07;3.70;;;1.13;;
2784;SDS011;57944;48.722;9.316;2022-09-09T14:23:37;3.97;;;1.50;;
2784;SDS011;57944;48.722;9.316;2022-09-09T14:26:08;4.80;;;1.43;;
2784;SDS011;57944;48.722;9.316;2022-09-09T14:28:38;5.33;;;1.40;;
2784;SDS011;57944;48.722;9.316;2022-09-09T14:31:23;3.30;;;0.87;;
2784;SDS011;57944;48.722;9.316;2022-09-09T14:33:53;3.80;;;1.10;;
2784;SDS011;57944;48.722;9.316;2022-09-09T14:36:24;4.70;;;1.30;;
2784;SDS011;57944;48.722;9.316;2022-09-09T14:38:54;3.23;;;1.00;;
2784;SDS011;57944;48.722;9.316;2022-09-09T14:41:24;2.57;;;1.03;;
2784;SDS011;57944;48.722;9.316;2022-09-09T14:43:55;4.00;;;1.33;;
2784;SDS011;57944;48.722;9.316;2022-09-09T14:46:28;3.40;;;1.10;;
2784;SDS011;57944;48.722;9.316;2022-09-09T14:48:59;4.00;;;1.20;;
2784;SDS011;57944;48.722;9.316;2022-09-09T14:51:30;3.03;;;1.00;;
2784;SDS011;57944;48.722;9.316;2022-09-09T14:54:00;2.40;;;1.00;;
2784;SDS011;57944;48.722;9.316;2022-09-09T14:56:31;3.03;;;1.20;;
2784;SDS011;57944;48.722;9.316;2022-09-09T14:59:04;2.93;;;1.00;;
2784;SDS011;57944;48.722;9.316;2022-09-09T15:01:36;2.83;;;1.27;;
2784;SDS011;57944;48.722;9.316;2022-09-09T15:04:06;2.40;;;1.10;;
2784;SDS011;57944;48.722;9.316;2022-09-09T15:06:36;4.13;;;1.10;;
2784;SDS011;57944;48.722;9.316;2022-09-09T15:09:08;3.03;;;1.00;;
2784;SDS011;57944;48.722;9.316;2022-09-09T15:11:38;3.33;;;1.10;;
2784;SDS011;57944;48.722;9.316;2022-09-09T15:14:10;2.43;;;0.90;;
2784;SDS011;57944;48.722;9.316;2022-09-09T15:16:43;2.20;;;0.90;;
2784;SDS011;57944;48.722;9.316;2022-09-09T15:19:13;4.33;;;1.07;;
2784;SDS011;57944;48.722;9.316;2022-09-09T15:21:43;4.17;;;1.30;;
2784;SDS011;57944;48.722;9.316;2022-09-09T15:24:13;3.17;;;1.10;;
2784;SDS011;57944;48.722;9.316;2022-09-09T15:26:43;3.90;;;1.00;;
2784;SDS011;57944;48.722;9.316;2022-09-09T15:29:15;3.13;;;1.10;;
2784;SDS011;57944;48.722;9.316;2022-09-09T15:31:48;3.60;;;1.33;;
2784;SDS011;57944;48.722;9.316;2022-09-09T15:34:18;4.63;;;1.10;;
2784;SDS011;57944;48.722;9.316;2022-09-09T15:36:48;3.27;;;1.70;;
2784;SDS011;57944;48.722;9.316;2022-09-09T15:39:18;3.60;;;1.13;;
2784;SDS011;57944;48.722;9.316;2022-09-09T15:41:49;4.40;;;1.20;;
2784;SDS011;57944;48.722;9.316;2022-09-09T15:44:19;3.90;;;1.10;;
2784;SDS011;57944;48.722;9.316;2022-09-09T15:46:54;6.53;;;1.40;;
2784;SDS011;57944;48.722;9.316;2022-09-09T15:49:24;3.27;;;1.20;;
2784;SDS011;57944;48.722;9.316;2022-09-09T15:51:55;9.83;;;1.47;;
2784;SDS011;57944;48.722;9.316;2022-09-09T15:54:30;4.40;;;1.23;;
2784;SDS011;57944;48.722;9.316;2022-09-09T15:57:05;3.70;;;1.30;;
2784;SDS011;57944;48.722;9.316;2022-09-09T15:59:38;3.93;;;1.17;;
2784;SDS011;57944;48.722;9.316;2022-09-09T16:02:12;4.57;;;1.47;;